createdAt,value
2019-04-20T00:00:08.174Z,7.80
2019-04-20T00:01:07.353Z,7.90
2019-04-20T00:02:13.654Z,7.70
2019-04-20T00:03:07.550Z,7.90
2019-04-20T00:04:10.812Z,7.80
2019-04-20T00:05:07.494Z,9.00
2019-04-20T00:06:06.951Z,7.40
2019-04-20T00:07:08.022Z,8.70
2019-04-20T00:08:12.759Z,8.00
2019-04-20T00:09:13.997Z,7.80
2019-04-20T00:10:10.957Z,8.00
2019-04-20T00:11:15.400Z,9.00
2019-04-20T00:12:16.968Z,7.90
2019-04-20T00:13:20.613Z,8.70
2019-04-20T00:14:14.510Z,7.70
2019-04-20T00:15:08.988Z,8.40
2019-04-20T00:16:08.333Z,8.80
2019-04-20T00:17:09.457Z,7.90
2019-04-20T00:18:09.924Z,9.50
2019-04-20T00:19:09.303Z,9.50
2019-04-20T00:20:13.364Z,7.70
2019-04-20T00:21:12.628Z,7.70
2019-04-20T00:22:12.332Z,7.90
2019-04-20T00:23:13.439Z,7.30
2019-04-20T00:24:14.806Z,7.50
2019-04-20T00:25:14.080Z,7.20
2019-04-20T00:26:17.359Z,6.90
2019-04-20T00:27:31.287Z,7.10
2019-04-20T00:28:31.344Z,7.70
2019-04-20T00:29:30.914Z,7.10
2019-04-20T00:30:34.024Z,7.50
2019-04-20T00:31:27.226Z,8.00
2019-04-20T00:32:19.978Z,7.30
2019-04-20T00:33:27.098Z,7.20
2019-04-20T00:34:18.307Z,7.30
2019-04-20T00:35:10.647Z,7.90
2019-04-20T00:36:11.911Z,7.60
2019-04-20T00:37:10.968Z,8.10
2019-04-20T00:38:11.930Z,8.20
2019-04-20T00:39:13.562Z,7.70
2019-04-20T00:40:11.345Z,10.20
2019-04-20T00:41:15.117Z,9.80
2019-04-20T00:42:14.469Z,11.20
2019-04-20T00:43:13.240Z,10.10
2019-04-20T00:44:17.115Z,9.00
2019-04-20T00:45:20.333Z,9.10
2019-04-20T00:46:21.900Z,8.30
2019-04-20T00:47:29.518Z,10.50
2019-04-20T00:48:22.609Z,9.10
2019-04-20T00:49:25.434Z,8.70
2019-04-20T00:50:31.065Z,8.60
2019-04-20T00:51:33.966Z,8.50
2019-04-20T00:52:41.341Z,8.60
2019-04-20T00:53:22.964Z,8.10
2019-04-20T00:54:13.595Z,8.30
2019-04-20T00:55:13.342Z,9.90
2019-04-20T00:56:14.048Z,8.00
2019-04-20T00:57:22.231Z,8.20
2019-04-20T00:58:20.168Z,10.00
2019-04-20T00:59:25.957Z,7.70
2019-04-20T01:00:31.641Z,8.40
2019-04-20T01:01:40.763Z,8.20
2019-04-20T01:02:29.665Z,8.40
2019-04-20T01:03:32.434Z,9.10
2019-04-20T01:04:37.794Z,8.70
2019-04-20T01:05:27.598Z,7.80
2019-04-20T01:06:31.819Z,8.60
2019-04-20T01:07:27.325Z,8.60
2019-04-20T01:08:15.073Z,8.30
2019-04-20T01:09:16.024Z,9.00
2019-04-20T01:10:15.350Z,9.60
2019-04-20T01:11:16.692Z,9.00
2019-04-20T01:12:21.549Z,9.30
2019-04-20T01:13:20.078Z,9.10
2019-04-20T01:14:17.585Z,9.30
2019-04-20T01:15:26.201Z,8.80
2019-04-20T01:16:24.051Z,9.50
2019-04-20T01:17:16.210Z,8.90
2019-04-20T01:18:16.351Z,9.70
2019-04-20T01:19:19.169Z,8.70
2019-04-20T01:20:16.619Z,9.00
2019-04-20T01:21:21.581Z,8.10
2019-04-20T01:22:20.575Z,8.50
2019-04-20T01:23:20.932Z,8.60
2019-04-20T01:24:24.808Z,8.50
2019-04-20T01:25:26.361Z,9.20
2019-04-20T01:26:20.582Z,9.40
2019-04-20T01:27:34.999Z,9.40
2019-04-20T01:28:33.601Z,11.90
2019-04-20T01:29:29.076Z,8.40
2019-04-20T01:30:25.311Z,9.60
2019-04-20T01:31:27.483Z,9.80
2019-04-20T01:32:27.722Z,9.50
2019-04-20T01:33:31.728Z,10.50
2019-04-20T01:34:32.516Z,10.90
2019-04-20T01:35:35.622Z,10.10
2019-04-20T01:36:36.850Z,10.80
2019-04-20T01:37:32.819Z,12.20
2019-04-20T01:38:34.647Z,9.60
2019-04-20T01:39:30.765Z,9.10
2019-04-20T01:40:19.266Z,8.80
2019-04-20T01:41:20.290Z,9.10
2019-04-20T01:42:19.633Z,8.90
2019-04-20T01:43:20.516Z,8.80
2019-04-20T01:44:26.156Z,9.20
2019-04-20T01:45:27.437Z,8.30
2019-04-20T01:46:23.412Z,8.60
2019-04-20T01:47:23.815Z,8.90
2019-04-20T01:48:26.766Z,8.60
2019-04-20T01:49:22.746Z,9.00
2019-04-20T01:50:26.073Z,8.70
2019-04-20T01:51:26.387Z,9.00
2019-04-20T01:52:26.883Z,8.30
2019-04-20T01:53:40.571Z,9.00
2019-04-20T01:54:41.486Z,9.00
2019-04-20T01:55:38.600Z,9.20
2019-04-20T01:56:36.195Z,11.00
2019-04-20T01:57:26.249Z,9.40
2019-04-20T01:58:43.544Z,9.00
2019-04-20T01:59:37.057Z,9.00
2019-04-20T02:00:28.420Z,8.90
2019-04-20T02:01:27.153Z,9.00
2019-04-20T02:02:24.456Z,9.10
2019-04-20T02:03:29.119Z,9.20
2019-04-20T02:04:30.147Z,9.70
2019-04-20T02:05:29.129Z,9.10
2019-04-20T02:06:25.117Z,9.40
2019-04-20T02:07:28.399Z,9.30
2019-04-20T02:08:27.386Z,9.00
2019-04-20T02:09:26.369Z,8.50
2019-04-20T02:10:31.928Z,8.90
2019-04-20T02:11:29.461Z,9.00
2019-04-20T02:12:28.668Z,9.40
2019-04-20T02:13:26.375Z,9.20
2019-04-20T02:14:32.221Z,9.00
2019-04-20T02:15:32.653Z,9.10
2019-04-20T02:16:31.715Z,8.40
2019-04-20T02:17:33.139Z,8.80
2019-04-20T02:18:39.462Z,9.20
2019-04-20T02:19:40.533Z,8.90
2019-04-20T02:20:44.262Z,9.30
2019-04-20T02:21:43.330Z,8.80
2019-04-20T02:22:44.603Z,9.00
2019-04-20T02:23:37.336Z,9.00
2019-04-20T02:24:25.761Z,9.00
2019-04-20T02:25:25.274Z,9.50
2019-04-20T02:26:26.071Z,9.50
2019-04-20T02:27:34.036Z,10.50
2019-04-20T02:28:55.365Z,8.90
2019-04-20T02:29:52.818Z,9.70
2019-04-20T02:32:10.398Z,9.60
2019-04-20T02:33:11.966Z,9.30
2019-04-20T02:33:58.093Z,9.30
2019-04-20T02:36:04.807Z,9.70
2019-04-20T02:37:09.637Z,8.80
2019-04-20T02:40:00.355Z,9.40
2019-04-20T02:40:57.425Z,9.40
2019-04-20T02:42:00.006Z,9.80
2019-04-20T02:43:11.512Z,8.90
2019-04-20T02:45:08.991Z,9.30
2019-04-20T02:46:03.458Z,9.40
2019-04-20T02:48:06.573Z,9.60
2019-04-20T02:49:10.596Z,9.70
2019-04-20T02:50:00.237Z,9.30
2019-04-20T02:50:59.008Z,9.90
2019-04-20T02:53:04.842Z,9.30
2019-04-20T02:54:12.932Z,9.60
2019-04-20T02:55:02.096Z,9.40
2019-04-20T02:56:04.898Z,9.30
2019-04-20T02:57:05.662Z,9.40
2019-04-20T02:59:27.089Z,9.90
2019-04-20T03:00:52.356Z,9.50
2019-04-20T03:01:52.135Z,9.70
2019-04-20T03:02:43.059Z,9.40
2019-04-20T03:03:36.537Z,9.50
2019-04-20T03:04:40.283Z,9.90
2019-04-20T03:05:42.304Z,9.70
2019-04-20T03:06:50.594Z,9.40
2019-04-20T03:07:54.658Z,10.10
2019-04-20T03:08:56.391Z,9.40
2019-04-20T03:09:50.192Z,9.50
2019-04-20T03:11:05.838Z,9.40
2019-04-20T03:11:59.689Z,9.50
2019-04-20T03:12:50.607Z,8.90
2019-04-20T03:13:53.149Z,9.90
2019-04-20T03:14:47.809Z,9.20
2019-04-20T03:15:48.364Z,9.30
2019-04-20T03:16:50.762Z,10.00
2019-04-20T03:17:51.071Z,10.20
2019-04-20T03:18:50.555Z,9.70
2019-04-20T03:19:47.794Z,9.30
2019-04-20T03:20:54.979Z,9.80
2019-04-20T03:22:00.444Z,9.70
2019-04-20T03:23:20.041Z,9.90
2019-04-20T03:24:03.949Z,9.70
2019-04-20T03:24:53.948Z,9.70
2019-04-20T03:25:55.915Z,8.90
2019-04-20T03:26:54.284Z,9.60
2019-04-20T03:27:51.790Z,10.20
2019-04-20T03:28:52.005Z,9.50
2019-04-20T03:29:54.951Z,10.80
2019-04-20T03:32:35.560Z,11.40
2019-04-20T03:36:07.545Z,9.20
2019-04-20T03:36:59.335Z,9.70
2019-04-20T03:37:58.771Z,9.70
2019-04-20T03:38:54.952Z,9.70
2019-04-20T03:39:48.863Z,9.50
2019-04-20T03:40:48.421Z,9.60
2019-04-20T03:41:41.951Z,9.10
2019-04-20T03:42:35.444Z,9.60
2019-04-20T03:43:36.986Z,9.50
2019-04-20T03:44:37.218Z,10.60
2019-04-20T03:45:44.526Z,9.20
2019-04-20T03:46:44.660Z,9.40
2019-04-20T03:47:51.208Z,9.40
2019-04-20T03:48:57.201Z,9.40
2019-04-20T03:50:02.677Z,9.70
2019-04-20T03:50:56.632Z,10.60
2019-04-20T03:51:57.309Z,11.70
2019-04-20T03:53:05.192Z,9.60
2019-04-20T03:53:56.548Z,9.50
2019-04-20T03:54:47.853Z,9.60
2019-04-20T03:55:52.633Z,9.50
2019-04-20T03:56:54.717Z,9.60
2019-04-20T03:57:57.518Z,9.50
2019-04-20T03:58:50.540Z,9.50
2019-04-20T04:00:00.676Z,10.00
2019-04-20T04:00:55.680Z,9.50
2019-04-20T04:02:20.109Z,9.80
2019-04-20T04:03:10.952Z,10.30
2019-04-20T04:04:05.264Z,11.40
2019-04-20T04:04:56.271Z,10.30
2019-04-20T04:05:51.862Z,10.30
2019-04-20T04:06:44.833Z,11.10
2019-04-20T04:07:46.641Z,9.90
2019-04-20T04:08:55.057Z,10.10
2019-04-20T04:09:56.465Z,11.70
2019-04-20T04:10:50.486Z,9.70
2019-04-20T04:11:56.068Z,9.60
2019-04-20T04:12:43.015Z,10.70
2019-04-20T04:13:39.739Z,10.10
2019-04-20T04:14:40.870Z,9.80
2019-04-20T04:15:45.339Z,10.00
2019-04-20T04:16:44.752Z,10.50
2019-04-20T04:17:43.410Z,11.50
2019-04-20T04:18:44.713Z,10.70
2019-04-20T04:19:52.463Z,9.90
2019-04-20T04:20:48.997Z,11.40
2019-04-20T04:21:52.427Z,12.20
2019-04-20T04:22:58.410Z,10.70
2019-04-20T04:23:58.896Z,10.30
2019-04-20T04:24:57.025Z,10.30
2019-04-20T04:25:59.393Z,10.30
2019-04-20T04:26:56.245Z,11.00
2019-04-20T04:28:02.688Z,10.50
2019-04-20T04:29:01.832Z,9.50
2019-04-20T04:29:59.516Z,10.90
2019-04-20T04:31:03.585Z,9.90
2019-04-20T04:32:09.332Z,10.80
2019-04-20T04:33:20.148Z,10.50
2019-04-20T04:34:12.565Z,10.50
2019-04-20T04:35:00.610Z,10.80
2019-04-20T04:35:56.666Z,10.20
2019-04-20T04:37:03.475Z,10.80
2019-04-20T04:38:04.021Z,11.50
2019-04-20T04:39:03.639Z,9.80
2019-04-20T04:40:05.021Z,10.30
2019-04-20T04:41:08.312Z,9.80
2019-04-20T04:42:10.219Z,10.50
2019-04-20T04:43:09.193Z,10.20
2019-04-20T04:43:59.827Z,10.50
2019-04-20T04:44:53.851Z,10.80
2019-04-20T04:45:44.693Z,10.20
2019-04-20T04:46:53.513Z,13.40
2019-04-20T04:47:45.097Z,10.80
2019-04-20T04:48:47.494Z,10.40
2019-04-20T04:49:49.943Z,9.80
2019-04-20T04:50:51.073Z,10.00
2019-04-20T04:51:52.074Z,10.00
2019-04-20T04:52:54.504Z,9.70
2019-04-20T04:53:57.329Z,10.10
2019-04-20T04:54:53.629Z,9.80
2019-04-20T04:55:54.086Z,10.20
2019-04-20T04:56:46.274Z,9.80
2019-04-20T04:57:45.440Z,10.60
2019-04-20T04:58:46.661Z,9.90
2019-04-20T04:59:46.657Z,10.20
2019-04-20T05:00:46.777Z,9.80
2019-04-20T05:01:50.002Z,10.30
2019-04-20T05:02:51.695Z,9.60
2019-04-20T05:04:13.035Z,9.70
2019-04-20T05:05:10.109Z,9.90
2019-04-20T05:06:01.902Z,10.30
2019-04-20T05:06:58.144Z,10.40
2019-04-20T05:07:56.456Z,9.70
2019-04-20T05:08:51.507Z,10.10
2019-04-20T05:09:46.922Z,10.10
2019-04-20T05:10:47.888Z,10.30
2019-04-20T05:11:50.713Z,10.40
2019-04-20T05:12:48.187Z,10.10
2019-04-20T05:13:55.980Z,10.30
2019-04-20T05:15:00.096Z,9.70
2019-04-20T05:16:00.428Z,9.80
2019-04-20T05:17:04.262Z,10.20
2019-04-20T05:18:05.827Z,10.60
2019-04-20T05:19:13.332Z,9.70
2019-04-20T05:20:09.343Z,10.90
2019-04-20T05:21:10.214Z,9.80
2019-04-20T05:22:09.733Z,11.80
2019-04-20T05:23:07.652Z,10.10
2019-04-20T05:24:09.976Z,10.20
2019-04-20T05:25:11.981Z,10.80
2019-04-20T05:26:09.373Z,9.80
2019-04-20T05:27:13.690Z,10.90
2019-04-20T05:28:05.276Z,10.30
2019-04-20T05:29:00.363Z,10.00
2019-04-20T05:29:50.783Z,9.90
2019-04-20T05:30:54.955Z,10.00
2019-04-20T05:31:57.190Z,10.60
2019-04-20T05:32:59.006Z,10.40
2019-04-20T05:34:15.617Z,10.90
2019-04-20T05:35:14.987Z,10.40
2019-04-20T05:36:12.754Z,11.00
2019-04-20T05:37:20.916Z,10.50
2019-04-20T05:38:13.290Z,10.40
2019-04-20T05:39:17.189Z,10.30
2019-04-20T05:40:16.198Z,11.10
2019-04-20T05:41:11.697Z,10.30
2019-04-20T05:42:09.568Z,11.00
2019-04-20T05:43:10.647Z,10.50
2019-04-20T05:44:10.371Z,10.50
2019-04-20T05:45:11.788Z,10.60
2019-04-20T05:46:15.843Z,11.60
2019-04-20T05:47:13.553Z,10.90
2019-04-20T05:48:09.008Z,10.40
2019-04-20T05:49:18.948Z,11.20
2019-04-20T05:50:04.923Z,12.50
2019-04-20T05:51:13.146Z,10.50
2019-04-20T05:52:24.127Z,11.30
2019-04-20T05:53:14.855Z,11.40
2019-04-20T05:54:13.768Z,10.80
2019-04-20T05:55:14.428Z,11.10
2019-04-20T05:56:10.611Z,10.90
2019-04-20T05:57:21.314Z,10.10
2019-04-20T05:58:17.930Z,10.20
2019-04-20T05:59:11.503Z,10.50
2019-04-20T06:00:14.628Z,11.10
2019-04-20T06:01:19.117Z,11.90
2019-04-20T06:02:18.443Z,10.10
2019-04-20T06:03:13.005Z,11.30
2019-04-20T06:04:10.653Z,12.00
2019-04-20T06:05:16.010Z,12.40
2019-04-20T06:06:14.104Z,14.40
2019-04-20T06:07:15.327Z,15.50
2019-04-20T06:08:25.023Z,15.80
2019-04-20T06:09:16.595Z,17.50
2019-04-20T06:10:20.346Z,16.90
2019-04-20T06:11:16.443Z,16.80
2019-04-20T06:12:25.410Z,17.30
2019-04-20T06:13:14.097Z,17.20
2019-04-20T06:14:06.791Z,16.90
2019-04-20T06:15:08.304Z,16.60
2019-04-20T06:16:13.927Z,16.50
2019-04-20T06:17:16.044Z,16.50
2019-04-20T06:18:12.906Z,15.00
2019-04-20T06:19:26.066Z,15.40
2019-04-20T06:20:20.032Z,13.30
2019-04-20T06:21:27.671Z,14.10
2019-04-20T06:22:21.752Z,13.50
2019-04-20T06:23:18.861Z,13.70
2019-04-20T06:24:18.384Z,12.60
2019-04-20T06:25:39.564Z,12.40
2019-04-20T06:27:14.621Z,12.60
2019-04-20T06:28:14.856Z,12.20
2019-04-20T06:29:16.746Z,12.70
2019-04-20T06:30:13.566Z,12.40
2019-04-20T06:31:21.573Z,13.50
2019-04-20T06:32:33.900Z,13.30
2019-04-20T06:33:25.554Z,13.30
2019-04-20T06:35:30.614Z,11.90
2019-04-20T06:37:18.426Z,12.50
2019-04-20T06:38:38.668Z,13.30
2019-04-20T06:39:19.926Z,12.40
2019-04-20T06:40:36.560Z,12.60
2019-04-20T06:41:32.096Z,13.30
2019-04-20T06:42:30.253Z,12.90
2019-04-20T06:43:19.224Z,12.30
2019-04-20T06:44:24.241Z,12.60
2019-04-20T06:45:31.423Z,11.90
2019-04-20T06:46:22.927Z,21.70
2019-04-20T06:47:21.294Z,14.90
2019-04-20T06:48:29.477Z,17.50
2019-04-20T06:49:36.670Z,18.10
2019-04-20T06:50:18.687Z,19.10
2019-04-20T06:51:23.438Z,15.40
2019-04-20T06:52:25.757Z,14.60
2019-04-20T06:53:23.834Z,12.30
2019-04-20T06:54:12.406Z,13.20
2019-04-20T06:55:23.415Z,13.70
2019-04-20T06:56:25.176Z,14.10
2019-04-20T06:57:29.192Z,13.60
2019-04-20T06:58:33.470Z,15.50
2019-04-20T06:59:28.526Z,14.10
2019-04-20T07:00:17.975Z,13.30
2019-04-20T07:01:17.276Z,13.00
2019-04-20T07:02:29.822Z,12.10
2019-04-20T07:03:36.158Z,12.90
2019-04-20T07:04:38.836Z,12.10
2019-04-20T07:06:43.916Z,11.60
2019-04-20T07:07:24.491Z,15.20
2019-04-20T07:08:43.921Z,13.40
2019-04-20T07:09:36.120Z,15.20
2019-04-20T07:10:28.574Z,16.30
2019-04-20T07:11:23.943Z,18.60
2019-04-20T07:12:24.140Z,12.60
2019-04-20T07:13:18.914Z,14.30
2019-04-20T07:14:11.379Z,15.60
2019-04-20T07:15:19.881Z,16.10
2019-04-20T07:16:21.507Z,14.40
2019-04-20T07:17:33.543Z,12.20
2019-04-20T07:18:30.001Z,14.90
2019-04-20T07:19:24.112Z,13.90
2019-04-20T07:20:19.538Z,14.80
2019-04-20T07:21:37.544Z,13.70
2019-04-20T07:22:49.242Z,14.30
2019-04-20T07:23:26.561Z,13.00
2019-04-20T07:24:35.166Z,12.10
2019-04-20T07:25:26.735Z,12.10
2019-04-20T07:26:29.201Z,11.20
2019-04-20T07:27:26.222Z,15.80
2019-04-20T07:28:32.737Z,13.50
2019-04-20T07:29:27.218Z,11.80
2019-04-20T07:30:21.546Z,12.30
2019-04-20T07:31:28.057Z,15.80
2019-04-20T07:32:19.338Z,15.90
2019-04-20T07:33:26.946Z,12.70
2019-04-20T07:34:26.185Z,13.60
2019-04-20T07:35:24.763Z,14.00
2019-04-20T07:36:32.403Z,12.90
2019-04-20T07:37:57.019Z,13.80
2019-04-20T07:39:27.958Z,12.80
2019-04-20T07:40:26.823Z,13.40
2019-04-20T07:41:32.970Z,13.30
2019-04-20T07:42:25.454Z,15.70
2019-04-20T07:43:26.694Z,13.20
2019-04-20T07:44:36.295Z,13.10
2019-04-20T07:45:29.578Z,14.90
2019-04-20T07:46:40.710Z,14.00
2019-04-20T07:47:35.809Z,13.80
2019-04-20T07:48:26.431Z,13.60
2019-04-20T07:49:32.492Z,14.50
2019-04-20T07:50:21.280Z,11.60
2019-04-20T07:51:16.237Z,13.30
2019-04-20T07:52:08.356Z,13.00
2019-04-20T07:53:25.832Z,12.00
2019-04-20T07:54:38.625Z,12.10
2019-04-20T07:56:32.579Z,17.70
2019-04-20T07:57:25.921Z,13.50
2019-04-20T07:58:23.652Z,12.30
2019-04-20T07:59:20.313Z,12.70
2019-04-20T08:00:35.422Z,12.50
2019-04-20T08:01:38.796Z,14.70
2019-04-20T08:02:37.668Z,14.90
2019-04-20T08:03:35.197Z,13.90
2019-04-20T08:04:30.092Z,14.60
2019-04-20T08:05:22.543Z,13.90
2019-04-20T08:06:19.327Z,15.10
2019-04-20T08:07:13.609Z,13.20
2019-04-20T08:08:30.455Z,12.70
2019-04-20T08:09:21.811Z,14.00
2019-04-20T08:10:29.931Z,16.20
2019-04-20T08:11:30.270Z,15.30
2019-04-20T08:12:31.336Z,18.30
2019-04-20T08:13:38.762Z,12.50
2019-04-20T08:15:04.489Z,15.00
2019-04-20T08:16:40.618Z,17.60
2019-04-20T08:17:37.423Z,14.10
2019-04-20T08:19:30.096Z,13.60
2019-04-20T08:20:35.239Z,13.30
2019-04-20T08:21:35.233Z,13.50
2019-04-20T08:22:38.906Z,18.40
2019-04-20T08:23:34.750Z,15.20
2019-04-20T08:24:27.881Z,17.90
2019-04-20T08:25:23.751Z,17.50
2019-04-20T08:26:20.269Z,18.90
2019-04-20T08:27:14.815Z,12.50
2019-04-20T08:28:21.438Z,12.10
2019-04-20T08:29:21.730Z,12.00
2019-04-20T08:30:37.804Z,11.60
2019-04-20T08:31:24.567Z,17.40
2019-04-20T08:32:34.565Z,12.40
2019-04-20T08:33:34.972Z,13.90
2019-04-20T08:34:41.583Z,12.30
2019-04-20T08:35:42.292Z,15.40
2019-04-20T08:36:31.575Z,20.80
2019-04-20T08:37:32.067Z,15.70
2019-04-20T08:39:00.116Z,16.50
2019-04-20T08:39:46.351Z,27.10
2019-04-20T08:40:40.001Z,18.10
2019-04-20T08:41:29.667Z,15.20
2019-04-20T08:42:37.879Z,17.60
2019-04-20T08:43:53.536Z,14.60
2019-04-20T08:44:53.729Z,19.80
2019-04-20T08:45:41.932Z,22.30
2019-04-20T08:46:41.794Z,17.00
2019-04-20T08:47:44.744Z,16.20
2019-04-20T08:48:40.852Z,15.50
2019-04-20T08:49:41.012Z,13.00
2019-04-20T08:50:36.394Z,17.80
2019-04-20T08:51:44.665Z,22.80
2019-04-20T08:52:55.456Z,14.50
2019-04-20T08:53:39.073Z,83.60
2019-04-20T08:54:34.502Z,44.60
2019-04-20T08:55:36.167Z,19.50
2019-04-20T08:56:30.559Z,24.60
2019-04-20T08:57:17.895Z,32.20
2019-04-20T08:58:18.093Z,23.60
2019-04-20T08:59:18.811Z,33.20
2019-04-20T09:00:28.825Z,25.00
2019-04-20T09:01:21.518Z,28.10
2019-04-20T09:02:19.120Z,45.20
2019-04-20T09:03:24.938Z,19.80
2019-04-20T09:04:22.970Z,27.70
2019-04-20T09:05:32.986Z,13.10
2019-04-20T09:06:33.638Z,15.80
2019-04-20T09:07:23.318Z,19.40
2019-04-20T09:08:27.483Z,18.70
2019-04-20T09:09:44.224Z,13.70
2019-04-20T09:10:38.005Z,16.20
2019-04-20T09:11:42.020Z,19.10
2019-04-20T09:12:35.455Z,17.40
2019-04-20T09:13:26.919Z,13.00
2019-04-20T09:14:21.458Z,14.50
2019-04-20T09:15:21.025Z,11.80
2019-04-20T09:16:26.946Z,12.60
2019-04-20T09:17:29.937Z,13.60
2019-04-20T09:18:26.095Z,15.00
2019-04-20T09:19:32.732Z,16.80
2019-04-20T09:20:31.913Z,14.40
2019-04-20T09:21:28.815Z,14.50
2019-04-20T09:22:28.005Z,17.60
2019-04-20T09:23:36.699Z,23.90
2019-04-20T09:24:44.640Z,11.50
2019-04-20T09:26:37.211Z,19.50
2019-04-20T09:27:32.387Z,13.30
2019-04-20T09:28:28.528Z,22.40
2019-04-20T09:29:33.377Z,12.30
2019-04-20T09:30:36.404Z,11.20
2019-04-20T09:31:35.191Z,15.40
2019-04-20T09:32:39.734Z,12.90
2019-04-20T09:33:36.355Z,12.30
2019-04-20T09:34:51.166Z,11.70
2019-04-20T09:35:39.011Z,10.30
2019-04-20T09:36:32.491Z,14.30
2019-04-20T09:37:43.538Z,13.90
2019-04-20T09:38:36.872Z,14.50
2019-04-20T09:39:30.374Z,13.20
2019-04-20T09:40:46.169Z,14.80
2019-04-20T09:41:47.081Z,13.80
2019-04-20T09:42:23.353Z,10.50
2019-04-20T09:43:23.827Z,12.60
2019-04-20T09:44:30.186Z,12.40
2019-04-20T09:45:33.006Z,12.20
2019-04-20T09:46:24.252Z,18.50
2019-04-20T09:47:33.730Z,14.60
2019-04-20T09:48:33.291Z,16.10
2019-04-20T09:49:40.223Z,12.20
2019-04-20T09:50:45.064Z,9.90
2019-04-20T09:51:41.967Z,11.70
2019-04-20T09:52:37.783Z,13.80
2019-04-20T09:53:39.412Z,12.80
2019-04-20T09:54:42.986Z,10.70
2019-04-20T09:55:36.317Z,10.30
2019-04-20T09:56:39.734Z,12.00
2019-04-20T09:57:43.988Z,12.60
2019-04-20T09:58:46.380Z,13.80
2019-04-20T09:59:44.781Z,11.70
2019-04-20T10:00:42.125Z,12.80
2019-04-20T10:01:35.165Z,11.60
2019-04-20T10:02:29.812Z,9.90
2019-04-20T10:03:26.857Z,12.00
2019-04-20T10:04:26.364Z,12.30
2019-04-20T10:05:27.390Z,9.40
2019-04-20T10:06:31.793Z,10.60
2019-04-20T10:07:33.448Z,11.80
2019-04-20T10:08:26.919Z,10.30
2019-04-20T10:09:32.578Z,15.40
2019-04-20T10:10:35.061Z,9.80
2019-04-20T10:11:27.611Z,10.80
2019-04-20T10:12:27.464Z,12.30
2019-04-20T10:13:27.609Z,9.70
2019-04-20T10:14:28.901Z,10.40
2019-04-20T10:15:29.599Z,9.20
2019-04-20T10:16:29.355Z,8.40
2019-04-20T10:17:31.330Z,9.30
2019-04-20T10:18:28.338Z,10.90
2019-04-20T10:19:33.519Z,9.30
2019-04-20T10:20:32.895Z,10.30
2019-04-20T10:21:29.950Z,7.20
2019-04-20T10:22:28.898Z,7.60
2019-04-20T10:23:30.230Z,7.00
2019-04-20T10:24:30.533Z,7.60
2019-04-20T10:25:30.751Z,7.10
2019-04-20T10:26:30.251Z,10.10
2019-04-20T10:27:30.678Z,8.70
2019-04-20T10:28:29.812Z,7.90
2019-04-20T10:29:31.216Z,7.90
2019-04-20T10:30:30.613Z,8.20
2019-04-20T10:31:30.746Z,7.20
2019-04-20T10:32:37.691Z,9.30
2019-04-20T10:33:31.337Z,6.30
2019-04-20T10:34:30.626Z,7.20
2019-04-20T10:35:31.759Z,9.70
2019-04-20T10:36:30.854Z,7.40
2019-04-20T10:37:31.556Z,6.40
2019-04-20T10:38:34.070Z,7.60
2019-04-20T10:39:31.244Z,6.60
2019-04-20T10:40:44.951Z,7.20
2019-04-20T10:41:40.907Z,8.20
2019-04-20T10:42:32.210Z,6.80
2019-04-20T10:43:32.962Z,8.90
2019-04-20T10:44:32.684Z,6.50
2019-04-20T10:45:33.066Z,6.60
2019-04-20T10:46:33.271Z,6.10
2019-04-20T10:47:32.751Z,6.80
2019-04-20T10:48:40.290Z,6.20
2019-04-20T10:49:33.297Z,6.40
2019-04-20T10:50:32.843Z,7.40
2019-04-20T10:51:33.644Z,6.60
2019-04-20T10:52:33.942Z,8.00
2019-04-20T10:53:33.349Z,7.30
2019-04-20T10:54:34.364Z,7.80
2019-04-20T10:55:33.634Z,6.20
2019-04-20T10:56:33.758Z,5.90
2019-04-20T10:57:33.807Z,6.10
2019-04-20T10:58:33.953Z,5.20
2019-04-20T10:59:34.087Z,6.40
2019-04-20T11:00:35.561Z,6.10
2019-04-20T11:01:35.741Z,6.20
2019-04-20T11:02:35.184Z,6.10
2019-04-20T11:03:34.706Z,6.50
2019-04-20T11:04:34.874Z,6.00
2019-04-20T11:05:34.998Z,6.10
2019-04-20T11:06:36.418Z,7.90
2019-04-20T11:07:36.605Z,5.50
2019-04-20T11:08:35.454Z,5.90
2019-04-20T11:09:36.631Z,7.20
2019-04-20T11:10:51.098Z,5.10
2019-04-20T11:11:37.040Z,5.00
2019-04-20T11:12:36.055Z,5.40
2019-04-20T11:13:37.490Z,4.80
2019-04-20T11:14:38.739Z,5.80
2019-04-20T11:15:36.673Z,4.90
2019-04-20T11:16:36.662Z,5.30
2019-04-20T11:17:37.404Z,6.60
2019-04-20T11:18:37.695Z,4.80
2019-04-20T11:19:37.178Z,4.80
2019-04-20T11:20:37.352Z,5.70
2019-04-20T11:21:38.619Z,12.90
2019-04-20T11:22:38.020Z,12.00
2019-04-20T11:23:38.276Z,9.90
2019-04-20T11:24:38.590Z,11.30
2019-04-20T11:25:38.059Z,7.90
2019-04-20T11:26:40.056Z,15.50
2019-04-20T11:27:38.402Z,11.70
2019-04-20T11:28:38.441Z,12.20
2019-04-20T11:29:38.605Z,16.50
2019-04-20T11:30:38.751Z,11.80
2019-04-20T11:31:44.089Z,12.30
2019-04-20T11:32:40.218Z,14.20
2019-04-20T11:33:40.386Z,14.10
2019-04-20T11:34:40.818Z,15.00
2019-04-20T11:35:42.918Z,14.10
2019-04-20T11:36:39.713Z,12.90
2019-04-20T11:37:39.850Z,10.60
2019-04-20T11:38:40.792Z,12.20
2019-04-20T11:39:41.068Z,10.50
2019-04-20T11:40:41.189Z,15.00
2019-04-20T11:41:41.464Z,16.00
2019-04-20T11:42:41.660Z,13.30
2019-04-20T11:43:41.928Z,8.90
2019-04-20T11:44:40.934Z,10.50
2019-04-20T11:45:41.055Z,11.70
2019-04-20T11:46:41.207Z,6.20
2019-04-20T11:47:41.347Z,8.50
2019-04-20T11:48:41.494Z,7.50
2019-04-20T11:49:41.696Z,11.40
2019-04-20T11:50:43.300Z,16.80
2019-04-20T11:51:41.932Z,13.60
2019-04-20T11:52:44.590Z,16.10
2019-04-20T11:53:42.677Z,6.40
2019-04-20T11:54:42.369Z,7.50
2019-04-20T11:55:42.515Z,6.00
2019-04-20T11:56:45.809Z,8.90
2019-04-20T11:57:43.120Z,11.80
2019-04-20T11:58:42.962Z,6.40
2019-04-20T11:59:43.235Z,10.50
2019-04-20T12:00:53.886Z,5.80
2019-04-20T12:01:50.220Z,8.70
2019-04-20T12:02:45.852Z,6.20
2019-04-20T12:03:52.979Z,6.10
2019-04-20T12:04:49.883Z,9.90
2019-04-20T12:05:49.639Z,8.50
2019-04-20T12:06:44.157Z,8.70
2019-04-20T12:07:44.812Z,25.50
2019-04-20T12:08:45.448Z,15.50
2019-04-20T12:09:44.606Z,22.50
2019-04-20T12:10:50.253Z,16.70
2019-04-20T12:11:56.223Z,17.40
2019-04-20T12:12:50.257Z,17.20
2019-04-20T12:13:45.202Z,26.60
2019-04-20T12:14:46.446Z,8.00
2019-04-20T12:15:45.583Z,6.60
2019-04-20T12:16:45.897Z,22.60
2019-04-20T12:17:45.778Z,20.50
2019-04-20T12:18:46.432Z,14.70
2019-04-20T12:19:46.068Z,22.60
2019-04-20T12:20:47.067Z,14.90
2019-04-20T12:21:47.424Z,10.70
2019-04-20T12:22:46.514Z,11.80
2019-04-20T12:23:46.657Z,14.90
2019-04-20T12:24:47.908Z,7.30
2019-04-20T12:25:48.077Z,9.90
2019-04-20T12:26:47.101Z,9.90
2019-04-20T12:27:51.306Z,11.90
2019-04-20T12:28:47.611Z,27.00
2019-04-20T12:29:47.875Z,9.80
2019-04-20T12:30:47.963Z,8.30
2019-04-20T12:31:51.094Z,9.20
2019-04-20T12:32:54.623Z,24.90
2019-04-20T12:33:48.396Z,20.70
2019-04-20T12:34:49.504Z,6.40
2019-04-20T12:35:48.396Z,5.90
2019-04-20T12:36:49.112Z,6.90
2019-04-20T12:37:49.290Z,7.70
2019-04-20T12:38:48.819Z,10.70
2019-04-20T12:39:49.235Z,18.60
2019-04-20T12:40:50.237Z,12.50
2019-04-20T12:41:53.657Z,17.80
2019-04-20T12:42:50.841Z,11.00
2019-04-20T12:43:49.830Z,7.20
2019-04-20T12:44:50.101Z,11.60
2019-04-20T12:45:49.842Z,14.10
2019-04-20T12:46:49.988Z,12.40
2019-04-20T12:47:51.486Z,13.40
2019-04-20T12:48:51.447Z,10.80
2019-04-20T12:49:51.567Z,17.30
2019-04-20T12:50:50.579Z,8.60
2019-04-20T12:51:55.976Z,8.80
2019-04-20T12:52:50.856Z,16.50
2019-04-20T12:53:50.994Z,13.80
2019-04-20T12:54:52.424Z,9.50
2019-04-20T12:55:52.601Z,9.30
2019-04-20T12:56:52.623Z,14.30
2019-04-20T12:57:52.509Z,13.00
2019-04-20T12:58:51.754Z,11.20
2019-04-20T12:59:52.419Z,13.10
2019-04-20T13:00:52.339Z,11.00
2019-04-20T13:01:53.351Z,13.70
2019-04-20T13:02:53.459Z,25.30
2019-04-20T13:03:53.236Z,16.60
2019-04-20T13:04:53.411Z,14.60
2019-04-20T13:05:54.076Z,11.50
2019-04-20T13:06:55.203Z,21.50
2019-04-20T13:07:56.416Z,30.60
2019-04-20T13:08:56.893Z,16.50
2019-04-20T13:09:54.669Z,9.70
2019-04-20T13:10:54.784Z,13.70
2019-04-20T13:11:59.439Z,18.30
2019-04-20T13:12:54.427Z,20.40
2019-04-20T13:13:54.557Z,11.40
2019-04-20T13:14:54.062Z,13.50
2019-04-20T13:15:54.375Z,11.70
2019-04-20T13:16:55.263Z,7.50
2019-04-20T13:17:54.485Z,11.40
2019-04-20T13:18:55.263Z,6.80
2019-04-20T13:19:55.290Z,10.80
2019-04-20T13:20:57.996Z,8.70
2019-04-20T13:21:55.043Z,10.80
2019-04-20T13:22:55.193Z,7.20
2019-04-20T13:23:56.472Z,5.70
2019-04-20T13:24:56.931Z,5.90
2019-04-20T13:25:57.049Z,6.00
2019-04-20T13:26:55.797Z,8.60